sensor_id;sensor_type;location;lat;lon;timestamp;P1;durP1;ratioP1;P2;durP2;ratioP2
11052;SDS011;55230;42.602;23.470;2024-03-07T00:02:08;14.27;;;9.90;;
11052;SDS011;55230;42.602;23.470;2024-03-07T00:04:34;10.65;;;8.77;;
11052;SDS011;55230;42.602;23.470;2024-03-07T00:07:01;10.90;;;8.73;;
11052;SDS011;55230;42.602;23.470;2024-03-07T00:09:28;11.38;;;8.98;;
11052;SDS011;55230;42.602;23.470;2024-03-07T00:11:57;13.10;;;9.40;;
11052;SDS011;55230;42.602;23.470;2024-03-07T00:14:23;13.77;;;9.30;;
11052;SDS011;55230;42.602;23.470;2024-03-07T00:16:52;15.48;;;9.68;;
11052;SDS011;55230;42.602;23.470;2024-03-07T00:19:18;12.52;;;9.60;;
11052;SDS011;55230;42.602;23.470;2024-03-07T00:21:43;11.93;;;8.50;;
11052;SDS011;55230;42.602;23.470;2024-03-07T00:24:09;11.95;;;9.13;;
11052;SDS011;55230;42.602;23.470;2024-03-07T00:26:35;11.23;;;8.55;;
11052;SDS011;55230;42.602;23.470;2024-03-07T00:29:01;11.60;;;9.80;;
11052;SDS011;55230;42.602;23.470;2024-03-07T00:31:27;13.25;;;8.15;;
11052;SDS011;55230;42.602;23.470;2024-03-07T00:33:54;10.20;;;8.02;;
11052;SDS011;55230;42.602;23.470;2024-03-07T00:36:21;11.98;;;9.23;;
11052;SDS011;55230;42.602;23.470;2024-03-07T00:38:47;14.60;;;8.00;;
11052;SDS011;55230;42.602;23.470;2024-03-07T00:41:12;12.00;;;8.88;;
11052;SDS011;55230;42.602;23.470;2024-03-07T00:43:37;12.82;;;8.38;;
11052;SDS011;55230;42.602;23.470;2024-03-07T00:46:03;11.43;;;8.90;;
11052;SDS011;55230;42.602;23.470;2024-03-07T00:48:31;10.73;;;7.68;;
11052;SDS011;55230;42.602;23.470;2024-03-07T00:50:57;8.55;;;7.65;;
11052;SDS011;55230;42.602;23.470;2024-03-07T00:53:22;10.90;;;8.38;;
11052;SDS011;55230;42.602;23.470;2024-03-07T00:55:47;9.73;;;8.70;;
11052;SDS011;55230;42.602;23.470;2024-03-07T00:58:13;9.95;;;7.70;;
11052;SDS011;55230;42.602;23.470;2024-03-07T01:00:38;12.93;;;8.93;;
11052;SDS011;55230;42.602;23.470;2024-03-07T01:03:08;11.25;;;7.72;;
11052;SDS011;55230;42.602;23.470;2024-03-07T01:05:36;9.38;;;8.27;;
11052;SDS011;55230;42.602;23.470;2024-03-07T01:08:02;10.63;;;7.75;;
11052;SDS011;55230;42.602;23.470;2024-03-07T01:10:28;9.70;;;7.50;;
11052;SDS011;55230;42.602;23.470;2024-03-07T01:12:53;9.13;;;7.22;;
11052;SDS011;55230;42.602;23.470;2024-03-07T01:15:22;12.63;;;7.53;;
11052;SDS011;55230;42.602;23.470;2024-03-07T01:17:48;9.98;;;8.35;;
11052;SDS011;55230;42.602;23.470;2024-03-07T01:20:13;12.50;;;8.32;;
11052;SDS011;55230;42.602;23.470;2024-03-07T01:22:39;10.95;;;9.02;;
11052;SDS011;55230;42.602;23.470;2024-03-07T01:25:04;11.38;;;8.38;;
11052;SDS011;55230;42.602;23.470;2024-03-07T01:27:31;13.73;;;8.52;;
11052;SDS011;55230;42.602;23.470;2024-03-07T01:29:57;11.93;;;7.43;;
11052;SDS011;55230;42.602;23.470;2024-03-07T01:32:22;10.32;;;7.10;;
11052;SDS011;55230;42.602;23.470;2024-03-07T01:34:48;9.88;;;8.40;;
11052;SDS011;55230;42.602;23.470;2024-03-07T01:37:14;9.45;;;6.82;;
11052;SDS011;55230;42.602;23.470;2024-03-07T01:39:39;9.40;;;6.55;;
11052;SDS011;55230;42.602;23.470;2024-03-07T01:42:04;5.80;;;5.30;;
11052;SDS011;55230;42.602;23.470;2024-03-07T01:44:30;6.30;;;4.97;;
11052;SDS011;55230;42.602;23.470;2024-03-07T01:46:58;5.43;;;4.35;;
11052;SDS011;55230;42.602;23.470;2024-03-07T01:49:28;4.10;;;3.67;;
11052;SDS011;55230;42.602;23.470;2024-03-07T01:51:54;2.50;;;2.30;;
11052;SDS011;55230;42.602;23.470;2024-03-07T01:54:20;2.70;;;2.50;;
11052;SDS011;55230;42.602;23.470;2024-03-07T01:56:45;1.70;;;1.60;;
11052;SDS011;55230;42.602;23.470;2024-03-07T01:59:11;2.50;;;2.35;;
11052;SDS011;55230;42.602;23.470;2024-03-07T02:01:38;2.10;;;1.90;;
11052;SDS011;55230;42.602;23.470;2024-03-07T02:04:04;2.17;;;1.92;;
11052;SDS011;55230;42.602;23.470;2024-03-07T02:06:29;2.33;;;2.22;;
11052;SDS011;55230;42.602;23.470;2024-03-07T02:08:55;2.22;;;2.08;;
11052;SDS011;55230;42.602;23.470;2024-03-07T02:11:20;2.63;;;2.42;;
11052;SDS011;55230;42.602;23.470;2024-03-07T02:13:46;3.13;;;2.70;;
11052;SDS011;55230;42.602;23.470;2024-03-07T02:16:11;3.15;;;2.10;;
11052;SDS011;55230;42.602;23.470;2024-03-07T02:18:37;2.38;;;2.10;;
11052;SDS011;55230;42.602;23.470;2024-03-07T02:21:07;2.10;;;1.90;;
11052;SDS011;55230;42.602;23.470;2024-03-07T02:23:34;2.20;;;2.00;;
11052;SDS011;55230;42.602;23.470;2024-03-07T02:25:59;3.80;;;2.38;;
11052;SDS011;55230;42.602;23.470;2024-03-07T02:28:25;1.73;;;1.63;;
11052;SDS011;55230;42.602;23.470;2024-03-07T02:30:50;2.97;;;1.67;;
11052;SDS011;55230;42.602;23.470;2024-03-07T02:33:16;1.42;;;1.33;;
11052;SDS011;55230;42.602;23.470;2024-03-07T02:35:41;1.85;;;1.75;;
11052;SDS011;55230;42.602;23.470;2024-03-07T02:38:07;1.33;;;1.17;;
11052;SDS011;55230;42.602;23.470;2024-03-07T02:40:33;1.73;;;1.42;;
11052;SDS011;55230;42.602;23.470;2024-03-07T02:42:59;0.93;;;0.93;;
11052;SDS011;55230;42.602;23.470;2024-03-07T02:45:25;2.22;;;1.90;;
11052;SDS011;55230;42.602;23.470;2024-03-07T02:47:51;1.60;;;1.50;;
11052;SDS011;55230;42.602;23.470;2024-03-07T02:50:16;1.60;;;1.50;;
11052;SDS011;55230;42.602;23.470;2024-03-07T02:52:42;1.45;;;1.35;;
11052;SDS011;55230;42.602;23.470;2024-03-07T02:55:07;0.80;;;0.80;;
11052;SDS011;55230;42.602;23.470;2024-03-07T02:57:35;1.20;;;1.20;;
11052;SDS011;55230;42.602;23.470;2024-03-07T03:00:01;1.55;;;1.45;;
11052;SDS011;55230;42.602;23.470;2024-03-07T03:02:28;0.90;;;0.90;;
11052;SDS011;55230;42.602;23.470;2024-03-07T03:04:53;1.13;;;1.13;;
11052;SDS011;55230;42.602;23.470;2024-03-07T03:07:25;0.55;;;0.55;;
11052;SDS011;55230;42.602;23.470;2024-03-07T03:09:51;1.02;;;1.02;;
11052;SDS011;55230;42.602;23.470;2024-03-07T03:12:16;0.77;;;0.77;;
11052;SDS011;55230;42.602;23.470;2024-03-07T03:14:41;1.08;;;1.08;;
11052;SDS011;55230;42.602;23.470;2024-03-07T03:17:07;2.42;;;1.75;;
11052;SDS011;55230;42.602;23.470;2024-03-07T03:19:34;1.00;;;1.00;;
11052;SDS011;55230;42.602;23.470;2024-03-07T03:22:00;0.90;;;0.90;;
11052;SDS011;55230;42.602;23.470;2024-03-07T03:24:25;0.80;;;0.80;;
11052;SDS011;55230;42.602;23.470;2024-03-07T03:26:52;0.60;;;0.60;;
11052;SDS011;55230;42.602;23.470;2024-03-07T03:29:17;0.60;;;0.60;;
11052;SDS011;55230;42.602;23.470;2024-03-07T03:31:43;0.80;;;0.80;;
11052;SDS011;55230;42.602;23.470;2024-03-07T03:34:08;0.85;;;0.85;;
11052;SDS011;55230;42.602;23.470;2024-03-07T03:36:35;0.85;;;0.85;;
11052;SDS011;55230;42.602;23.470;2024-03-07T03:39:00;1.00;;;1.00;;
11052;SDS011;55230;42.602;23.470;2024-03-07T03:41:26;0.40;;;0.40;;
11052;SDS011;55230;42.602;23.470;2024-03-07T03:43:52;1.23;;;0.70;;
11052;SDS011;55230;42.602;23.470;2024-03-07T03:46:18;1.00;;;1.00;;
11052;SDS011;55230;42.602;23.470;2024-03-07T03:48:43;0.80;;;0.80;;
11052;SDS011;55230;42.602;23.470;2024-03-07T03:51:09;1.27;;;1.20;;
11052;SDS011;55230;42.602;23.470;2024-03-07T03:53:35;1.10;;;1.10;;
11052;SDS011;55230;42.602;23.470;2024-03-07T03:56:01;1.10;;;1.10;;
11052;SDS011;55230;42.602;23.470;2024-03-07T03:58:29;1.27;;;1.27;;
11052;SDS011;55230;42.602;23.470;2024-03-07T04:00:55;1.50;;;1.27;;
11052;SDS011;55230;42.602;23.470;2024-03-07T04:03:21;0.90;;;0.90;;
11052;SDS011;55230;42.602;23.470;2024-03-07T04:05:46;0.93;;;0.93;;
11052;SDS011;55230;42.602;23.470;2024-03-07T04:08:12;0.73;;;0.60;;
11052;SDS011;55230;42.602;23.470;2024-03-07T04:10:37;0.88;;;0.88;;
11052;SDS011;55230;42.602;23.470;2024-03-07T04:13:04;0.90;;;0.90;;
11052;SDS011;55230;42.602;23.470;2024-03-07T04:15:29;0.85;;;0.85;;
11052;SDS011;55230;42.602;23.470;2024-03-07T04:17:56;0.80;;;0.80;;
11052;SDS011;55230;42.602;23.470;2024-03-07T04:20:22;1.05;;;1.05;;
11052;SDS011;55230;42.602;23.470;2024-03-07T04:22:48;1.00;;;1.00;;
11052;SDS011;55230;42.602;23.470;2024-03-07T04:25:14;0.80;;;0.80;;
11052;SDS011;55230;42.602;23.470;2024-03-07T04:27:39;0.70;;;0.70;;
11052;SDS011;55230;42.602;23.470;2024-03-07T04:30:05;0.95;;;0.95;;
11052;SDS011;55230;42.602;23.470;2024-03-07T04:32:38;0.85;;;0.85;;
11052;SDS011;55230;42.602;23.470;2024-03-07T04:35:05;1.10;;;1.10;;
11052;SDS011;55230;42.602;23.470;2024-03-07T04:37:32;0.82;;;0.70;;
11052;SDS011;55230;42.602;23.470;2024-03-07T04:40:04;0.47;;;0.40;;
11052;SDS011;55230;42.602;23.470;2024-03-07T04:42:40;2.85;;;1.77;;
11052;SDS011;55230;42.602;23.470;2024-03-07T04:45:09;1.20;;;1.20;;
11052;SDS011;55230;42.602;23.470;2024-03-07T04:47:38;0.70;;;0.70;;
11052;SDS011;55230;42.602;23.470;2024-03-07T04:50:03;0.80;;;0.80;;
11052;SDS011;55230;42.602;23.470;2024-03-07T04:52:29;0.65;;;0.65;;
11052;SDS011;55230;42.602;23.470;2024-03-07T04:54:55;0.75;;;0.75;;
11052;SDS011;55230;42.602;23.470;2024-03-07T04:57:20;0.80;;;0.80;;
11052;SDS011;55230;42.602;23.470;2024-03-07T04:59:46;0.75;;;0.75;;
11052;SDS011;55230;42.602;23.470;2024-03-07T05:02:11;0.93;;;0.93;;
11052;SDS011;55230;42.602;23.470;2024-03-07T05:04:36;2.38;;;2.17;;
11052;SDS011;55230;42.602;23.470;2024-03-07T05:07:02;1.02;;;1.02;;
11052;SDS011;55230;42.602;23.470;2024-03-07T05:09:28;1.67;;;1.58;;
11052;SDS011;55230;42.602;23.470;2024-03-07T05:11:54;0.63;;;0.63;;
11052;SDS011;55230;42.602;23.470;2024-03-07T05:14:20;0.90;;;0.90;;
11052;SDS011;55230;42.602;23.470;2024-03-07T05:16:46;1.15;;;0.65;;
11052;SDS011;55230;42.602;23.470;2024-03-07T05:19:29;0.82;;;0.82;;
11052;SDS011;55230;42.602;23.470;2024-03-07T05:21:55;1.80;;;1.70;;
11052;SDS011;55230;42.602;23.470;2024-03-07T05:24:21;0.70;;;0.70;;
11052;SDS011;55230;42.602;23.470;2024-03-07T05:26:46;0.55;;;0.55;;
11052;SDS011;55230;42.602;23.470;2024-03-07T05:29:12;0.57;;;0.57;;
11052;SDS011;55230;42.602;23.470;2024-03-07T05:31:38;0.82;;;0.82;;
11052;SDS011;55230;42.602;23.470;2024-03-07T05:34:09;1.63;;;1.52;;
11052;SDS011;55230;42.602;23.470;2024-03-07T05:36:35;0.95;;;0.95;;
11052;SDS011;55230;42.602;23.470;2024-03-07T05:39:01;1.33;;;1.23;;
11052;SDS011;55230;42.602;23.470;2024-03-07T05:41:34;1.52;;;1.42;;
11052;SDS011;55230;42.602;23.470;2024-03-07T05:44:00;1.40;;;1.30;;
11052;SDS011;55230;42.602;23.470;2024-03-07T05:46:25;0.80;;;0.80;;
11052;SDS011;55230;42.602;23.470;2024-03-07T05:48:51;0.85;;;0.80;;
11052;SDS011;55230;42.602;23.470;2024-03-07T05:51:21;0.70;;;0.70;;
11052;SDS011;55230;42.602;23.470;2024-03-07T05:53:49;0.47;;;0.47;;
11052;SDS011;55230;42.602;23.470;2024-03-07T05:56:15;0.80;;;0.80;;
11052;SDS011;55230;42.602;23.470;2024-03-07T05:58:41;0.77;;;0.77;;
11052;SDS011;55230;42.602;23.470;2024-03-07T06:01:06;1.17;;;1.17;;
11052;SDS011;55230;42.602;23.470;2024-03-07T06:03:33;0.70;;;0.60;;
11052;SDS011;55230;42.602;23.470;2024-03-07T06:05:59;1.00;;;1.00;;
11052;SDS011;55230;42.602;23.470;2024-03-07T06:08:25;0.50;;;0.50;;
11052;SDS011;55230;42.602;23.470;2024-03-07T06:10:50;2.92;;;2.70;;
11052;SDS011;55230;42.602;23.470;2024-03-07T06:13:16;2.22;;;2.13;;
11052;SDS011;55230;42.602;23.470;2024-03-07T06:15:47;1.63;;;1.50;;
11052;SDS011;55230;42.602;23.470;2024-03-07T06:18:13;1.20;;;1.20;;
11052;SDS011;55230;42.602;23.470;2024-03-07T06:20:42;0.88;;;0.75;;
11052;SDS011;55230;42.602;23.470;2024-03-07T06:23:09;1.60;;;1.60;;
11052;SDS011;55230;42.602;23.470;2024-03-07T06:25:36;0.93;;;0.93;;
11052;SDS011;55230;42.602;23.470;2024-03-07T06:28:12;0.93;;;0.93;;
11052;SDS011;55230;42.602;23.470;2024-03-07T06:30:39;1.33;;;1.23;;
11052;SDS011;55230;42.602;23.470;2024-03-07T06:33:06;1.48;;;1.38;;
11052;SDS011;55230;42.602;23.470;2024-03-07T06:35:32;2.58;;;1.33;;
11052;SDS011;55230;42.602;23.470;2024-03-07T06:38:01;1.15;;;1.15;;
11052;SDS011;55230;42.602;23.470;2024-03-07T06:40:28;1.00;;;1.00;;
11052;SDS011;55230;42.602;23.470;2024-03-07T06:42:54;0.68;;;0.68;;
11052;SDS011;55230;42.602;23.470;2024-03-07T06:45:20;0.85;;;0.85;;
11052;SDS011;55230;42.602;23.470;2024-03-07T06:47:45;1.20;;;1.10;;
11052;SDS011;55230;42.602;23.470;2024-03-07T06:50:12;2.67;;;1.23;;
11052;SDS011;55230;42.602;23.470;2024-03-07T06:52:40;1.15;;;1.05;;
11052;SDS011;55230;42.602;23.470;2024-03-07T06:55:06;0.77;;;0.77;;
11052;SDS011;55230;42.602;23.470;2024-03-07T06:57:33;1.23;;;1.23;;
11052;SDS011;55230;42.602;23.470;2024-03-07T06:59:59;1.92;;;1.83;;
11052;SDS011;55230;42.602;23.470;2024-03-07T07:02:24;5.43;;;3.80;;
11052;SDS011;55230;42.602;23.470;2024-03-07T07:04:52;4.38;;;3.20;;
11052;SDS011;55230;42.602;23.470;2024-03-07T07:07:18;1.95;;;1.85;;
11052;SDS011;55230;42.602;23.470;2024-03-07T07:09:45;1.38;;;1.38;;
11052;SDS011;55230;42.602;23.470;2024-03-07T07:12:10;1.48;;;1.38;;
11052;SDS011;55230;42.602;23.470;2024-03-07T07:14:36;1.23;;;1.10;;
11052;SDS011;55230;42.602;23.470;2024-03-07T07:17:01;1.48;;;1.20;;
11052;SDS011;55230;42.602;23.470;2024-03-07T07:19:27;0.88;;;0.88;;
11052;SDS011;55230;42.602;23.470;2024-03-07T07:21:52;2.15;;;0.98;;
11052;SDS011;55230;42.602;23.470;2024-03-07T07:24:19;2.40;;;1.98;;
11052;SDS011;55230;42.602;23.470;2024-03-07T07:26:49;1.48;;;1.33;;
11052;SDS011;55230;42.602;23.470;2024-03-07T07:29:15;0.93;;;0.93;;
11052;SDS011;55230;42.602;23.470;2024-03-07T07:31:41;1.17;;;1.10;;
11052;SDS011;55230;42.602;23.470;2024-03-07T07:34:06;1.23;;;1.13;;
11052;SDS011;55230;42.602;23.470;2024-03-07T07:36:31;1.10;;;1.10;;
11052;SDS011;55230;42.602;23.470;2024-03-07T07:38:57;1.23;;;1.17;;
11052;SDS011;55230;42.602;23.470;2024-03-07T07:41:23;0.65;;;0.65;;
11052;SDS011;55230;42.602;23.470;2024-03-07T07:43:48;1.23;;;1.20;;
11052;SDS011;55230;42.602;23.470;2024-03-07T07:46:16;1.40;;;1.30;;
11052;SDS011;55230;42.602;23.470;2024-03-07T07:48:42;2.33;;;2.13;;
11052;SDS011;55230;42.602;23.470;2024-03-07T07:51:07;3.53;;;2.38;;
11052;SDS011;55230;42.602;23.470;2024-03-07T07:53:32;2.95;;;1.90;;
11052;SDS011;55230;42.602;23.470;2024-03-07T07:55:59;2.38;;;0.98;;
11052;SDS011;55230;42.602;23.470;2024-03-07T07:58:24;1.73;;;1.00;;
11052;SDS011;55230;42.602;23.470;2024-03-07T08:00:50;4.30;;;2.40;;
11052;SDS011;55230;42.602;23.470;2024-03-07T08:03:16;7.80;;;3.97;;
11052;SDS011;55230;42.602;23.470;2024-03-07T08:05:43;3.42;;;1.60;;
11052;SDS011;55230;42.602;23.470;2024-03-07T08:08:10;1.63;;;1.30;;
11052;SDS011;55230;42.602;23.470;2024-03-07T08:10:38;7.72;;;4.15;;
11052;SDS011;55230;42.602;23.470;2024-03-07T08:13:06;4.18;;;2.47;;
11052;SDS011;55230;42.602;23.470;2024-03-07T08:15:31;2.45;;;2.22;;
11052;SDS011;55230;42.602;23.470;2024-03-07T08:17:57;3.20;;;2.72;;
11052;SDS011;55230;42.602;23.470;2024-03-07T08:20:24;1.20;;;1.17;;
11052;SDS011;55230;42.602;23.470;2024-03-07T08:22:51;1.58;;;1.48;;
11052;SDS011;55230;42.602;23.470;2024-03-07T08:25:18;1.92;;;1.75;;
11052;SDS011;55230;42.602;23.470;2024-03-07T08:27:45;0.95;;;0.95;;
11052;SDS011;55230;42.602;23.470;2024-03-07T08:30:13;1.00;;;1.00;;
11052;SDS011;55230;42.602;23.470;2024-03-07T08:32:39;1.50;;;1.30;;
11052;SDS011;55230;42.602;23.470;2024-03-07T08:35:12;2.85;;;2.65;;
11052;SDS011;55230;42.602;23.470;2024-03-07T08:37:56;3.58;;;3.25;;
11052;SDS011;55230;42.602;23.470;2024-03-07T08:40:25;2.50;;;2.30;;
11052;SDS011;55230;42.602;23.470;2024-03-07T08:42:56;1.67;;;1.58;;
11052;SDS011;55230;42.602;23.470;2024-03-07T08:45:22;1.55;;;1.25;;
11052;SDS011;55230;42.602;23.470;2024-03-07T08:47:49;1.00;;;1.00;;
11052;SDS011;55230;42.602;23.470;2024-03-07T08:50:15;1.75;;;1.63;;
11052;SDS011;55230;42.602;23.470;2024-03-07T08:52:44;1.50;;;1.40;;
11052;SDS011;55230;42.602;23.470;2024-03-07T08:55:14;1.98;;;1.88;;
11052;SDS011;55230;42.602;23.470;2024-03-07T08:57:41;2.08;;;1.92;;
11052;SDS011;55230;42.602;23.470;2024-03-07T09:00:11;1.52;;;1.42;;
11052;SDS011;55230;42.602;23.470;2024-03-07T09:02:47;1.95;;;1.85;;
11052;SDS011;55230;42.602;23.470;2024-03-07T09:05:19;1.73;;;1.63;;
11052;SDS011;55230;42.602;23.470;2024-03-07T09:07:47;1.83;;;1.58;;
11052;SDS011;55230;42.602;23.470;2024-03-07T09:10:13;1.77;;;1.67;;
11052;SDS011;55230;42.602;23.470;2024-03-07T09:12:42;1.98;;;1.23;;
11052;SDS011;55230;42.602;23.470;2024-03-07T09:15:09;1.40;;;1.33;;
11052;SDS011;55230;42.602;23.470;2024-03-07T09:17:38;1.08;;;1.08;;
11052;SDS011;55230;42.602;23.470;2024-03-07T09:20:06;1.33;;;1.33;;
11052;SDS011;55230;42.602;23.470;2024-03-07T09:22:40;2.03;;;1.92;;
11052;SDS011;55230;42.602;23.470;2024-03-07T09:25:08;8.18;;;4.82;;
11052;SDS011;55230;42.602;23.470;2024-03-07T09:27:35;2.20;;;2.10;;
11052;SDS011;55230;42.602;23.470;2024-03-07T09:30:00;1.90;;;1.80;;
11052;SDS011;55230;42.602;23.470;2024-03-07T09:32:26;1.63;;;1.52;;
11052;SDS011;55230;42.602;23.470;2024-03-07T09:34:53;2.35;;;2.15;;
11052;SDS011;55230;42.602;23.470;2024-03-07T09:37:18;1.83;;;1.73;;
11052;SDS011;55230;42.602;23.470;2024-03-07T09:39:46;1.95;;;1.85;;
11052;SDS011;55230;42.602;23.470;2024-03-07T09:42:12;2.20;;;2.10;;
11052;SDS011;55230;42.602;23.470;2024-03-07T09:44:42;1.17;;;1.08;;
11052;SDS011;55230;42.602;23.470;2024-03-07T09:47:11;3.75;;;2.83;;
11052;SDS011;55230;42.602;23.470;2024-03-07T09:49:38;2.92;;;2.72;;
11052;SDS011;55230;42.602;23.470;2024-03-07T09:52:04;3.30;;;2.50;;
11052;SDS011;55230;42.602;23.470;2024-03-07T09:54:34;1.80;;;1.70;;
11052;SDS011;55230;42.602;23.470;2024-03-07T09:57:03;1.75;;;1.65;;
11052;SDS011;55230;42.602;23.470;2024-03-07T09:59:32;2.22;;;2.10;;
11052;SDS011;55230;42.602;23.470;2024-03-07T10:02:05;2.65;;;2.45;;
11052;SDS011;55230;42.602;23.470;2024-03-07T10:04:53;2.53;;;2.33;;
11052;SDS011;55230;42.602;23.470;2024-03-07T10:07:18;2.15;;;1.58;;
11052;SDS011;55230;42.602;23.470;2024-03-07T10:09:44;2.42;;;2.22;;
11052;SDS011;55230;42.602;23.470;2024-03-07T10:12:10;2.00;;;1.90;;
11052;SDS011;55230;42.602;23.470;2024-03-07T10:14:37;1.70;;;1.60;;
11052;SDS011;55230;42.602;23.470;2024-03-07T10:17:03;1.98;;;1.88;;
11052;SDS011;55230;42.602;23.470;2024-03-07T10:19:30;2.58;;;2.38;;
11052;SDS011;55230;42.602;23.470;2024-03-07T10:21:55;2.03;;;1.92;;
11052;SDS011;55230;42.602;23.470;2024-03-07T10:24:24;2.78;;;2.55;;
11052;SDS011;55230;42.602;23.470;2024-03-07T10:26:50;2.72;;;2.53;;
11052;SDS011;55230;42.602;23.470;2024-03-07T10:29:17;2.47;;;2.33;;
11052;SDS011;55230;42.602;23.470;2024-03-07T10:31:44;2.25;;;2.15;;
11052;SDS011;55230;42.602;23.470;2024-03-07T10:34:10;2.42;;;2.22;;
11052;SDS011;55230;42.602;23.470;2024-03-07T10:36:36;2.33;;;2.15;;
11052;SDS011;55230;42.602;23.470;2024-03-07T10:39:02;2.75;;;2.55;;
11052;SDS011;55230;42.602;23.470;2024-03-07T10:41:48;1.92;;;1.83;;
11052;SDS011;55230;42.602;23.470;2024-03-07T10:44:24;2.72;;;2.08;;
11052;SDS011;55230;42.602;23.470;2024-03-07T10:46:54;18.67;;;8.02;;
11052;SDS011;55230;42.602;23.470;2024-03-07T10:49:21;24.23;;;10.65;;
11052;SDS011;55230;42.602;23.470;2024-03-07T10:51:50;95.13;;;42.58;;
11052;SDS011;55230;42.602;23.470;2024-03-07T10:54:48;3.78;;;3.20;;
11052;SDS011;55230;42.602;23.470;2024-03-07T10:57:29;19.75;;;10.88;;
11052;SDS011;55230;42.602;23.470;2024-03-07T11:00:02;85.40;;;39.88;;
11052;SDS011;55230;42.602;23.470;2024-03-07T11:02:49;50.20;;;22.70;;
11052;SDS011;55230;42.602;23.470;2024-03-07T11:05:18;17.10;;;9.05;;
11052;SDS011;55230;42.602;23.470;2024-03-07T11:07:44;5.03;;;4.35;;
11052;SDS011;55230;42.602;23.470;2024-03-07T11:10:10;24.88;;;12.02;;
11052;SDS011;55230;42.602;23.470;2024-03-07T11:12:36;36.33;;;17.05;;
11052;SDS011;55230;42.602;23.470;2024-03-07T11:15:06;43.50;;;17.77;;
11052;SDS011;55230;42.602;23.470;2024-03-07T11:17:40;11.63;;;6.88;;
11052;SDS011;55230;42.602;23.470;2024-03-07T11:20:20;3.55;;;2.45;;
11052;SDS011;55230;42.602;23.470;2024-03-07T11:22:58;12.05;;;6.15;;
11052;SDS011;55230;42.602;23.470;2024-03-07T11:25:24;1.50;;;1.40;;
11052;SDS011;55230;42.602;23.470;2024-03-07T11:27:59;2.05;;;1.60;;
11052;SDS011;55230;42.602;23.470;2024-03-07T11:30:26;1.73;;;1.63;;
11052;SDS011;55230;42.602;23.470;2024-03-07T11:32:52;1.42;;;1.35;;
11052;SDS011;55230;42.602;23.470;2024-03-07T11:35:31;2.00;;;1.90;;
11052;SDS011;55230;42.602;23.470;2024-03-07T11:38:01;1.73;;;1.63;;
11052;SDS011;55230;42.602;23.470;2024-03-07T11:42:54;1.80;;;1.70;;
11052;SDS011;55230;42.602;23.470;2024-03-07T11:45:25;2.05;;;1.95;;
11052;SDS011;55230;42.602;23.470;2024-03-07T11:47:52;2.80;;;2.40;;
11052;SDS011;55230;42.602;23.470;2024-03-07T11:50:44;1.95;;;1.85;;
11052;SDS011;55230;42.602;23.470;2024-03-07T11:53:10;3.00;;;2.75;;
11052;SDS011;55230;42.602;23.470;2024-03-07T11:55:35;2.00;;;1.90;;
11052;SDS011;55230;42.602;23.470;2024-03-07T11:58:14;1.75;;;1.65;;
11052;SDS011;55230;42.602;23.470;2024-03-07T12:00:46;2.17;;;2.08;;
11052;SDS011;55230;42.602;23.470;2024-03-07T12:03:16;2.45;;;2.35;;
11052;SDS011;55230;42.602;23.470;2024-03-07T12:05:46;1.85;;;1.75;;
11052;SDS011;55230;42.602;23.470;2024-03-07T12:08:12;2.63;;;2.42;;
11052;SDS011;55230;42.602;23.470;2024-03-07T12:10:38;2.50;;;2.40;;
11052;SDS011;55230;42.602;23.470;2024-03-07T12:13:12;2.40;;;2.30;;
11052;SDS011;55230;42.602;23.470;2024-03-07T12:15:42;2.13;;;2.03;;
11052;SDS011;55230;42.602;23.470;2024-03-07T12:18:08;2.20;;;2.10;;
11052;SDS011;55230;42.602;23.470;2024-03-07T12:20:36;2.85;;;2.65;;
11052;SDS011;55230;42.602;23.470;2024-03-07T12:23:02;2.58;;;2.47;;
11052;SDS011;55230;42.602;23.470;2024-03-07T12:25:30;3.13;;;2.40;;
11052;SDS011;55230;42.602;23.470;2024-03-07T12:28:00;3.33;;;3.13;;
11052;SDS011;55230;42.602;23.470;2024-03-07T12:30:31;2.47;;;2.10;;
11052;SDS011;55230;42.602;23.470;2024-03-07T12:32:58;2.90;;;2.70;;
11052;SDS011;55230;42.602;23.470;2024-03-07T12:35:25;2.97;;;2.78;;
11052;SDS011;55230;42.602;23.470;2024-03-07T12:37:52;2.58;;;2.38;;
11052;SDS011;55230;42.602;23.470;2024-03-07T12:40:19;2.40;;;2.20;;
11052;SDS011;55230;42.602;23.470;2024-03-07T12:42:48;2.15;;;2.05;;
11052;SDS011;55230;42.602;23.470;2024-03-07T12:45:16;2.40;;;2.30;;
11052;SDS011;55230;42.602;23.470;2024-03-07T12:47:47;2.38;;;2.20;;
11052;SDS011;55230;42.602;23.470;2024-03-07T12:50:20;2.50;;;2.30;;
11052;SDS011;55230;42.602;23.470;2024-03-07T12:52:47;3.17;;;1.95;;
11052;SDS011;55230;42.602;23.470;2024-03-07T12:55:16;4.28;;;3.80;;
11052;SDS011;55230;42.602;23.470;2024-03-07T12:57:46;5.63;;;3.97;;
11052;SDS011;55230;42.602;23.470;2024-03-07T13:00:13;4.18;;;2.80;;
11052;SDS011;55230;42.602;23.470;2024-03-07T13:02:48;5.07;;;4.50;;
11052;SDS011;55230;42.602;23.470;2024-03-07T13:05:14;4.80;;;4.05;;
11052;SDS011;55230;42.602;23.470;2024-03-07T13:07:45;3.63;;;3.33;;
11052;SDS011;55230;42.602;23.470;2024-03-07T13:10:12;4.03;;;3.63;;
11052;SDS011;55230;42.602;23.470;2024-03-07T13:12:40;3.33;;;3.13;;
11052;SDS011;55230;42.602;23.470;2024-03-07T13:15:10;4.00;;;2.50;;
11052;SDS011;55230;42.602;23.470;2024-03-07T13:17:35;2.85;;;2.40;;
11052;SDS011;55230;42.602;23.470;2024-03-07T13:20:01;2.67;;;2.47;;
11052;SDS011;55230;42.602;23.470;2024-03-07T13:22:26;2.50;;;2.30;;
11052;SDS011;55230;42.602;23.470;2024-03-07T13:24:52;2.25;;;2.15;;
11052;SDS011;55230;42.602;23.470;2024-03-07T13:27:18;3.40;;;3.00;;
11052;SDS011;55230;42.602;23.470;2024-03-07T13:29:53;2.90;;;2.70;;
11052;SDS011;55230;42.602;23.470;2024-03-07T13:32:18;4.18;;;2.70;;
11052;SDS011;55230;42.602;23.470;2024-03-07T13:34:44;6.30;;;4.43;;
11052;SDS011;55230;42.602;23.470;2024-03-07T13:37:10;14.15;;;6.65;;
11052;SDS011;55230;42.602;23.470;2024-03-07T13:39:40;3.47;;;3.28;;
11052;SDS011;55230;42.602;23.470;2024-03-07T13:42:08;4.22;;;3.25;;
11052;SDS011;55230;42.602;23.470;2024-03-07T13:44:36;5.97;;;4.53;;
11052;SDS011;55230;42.602;23.470;2024-03-07T13:47:03;4.45;;;4.00;;
11052;SDS011;55230;42.602;23.470;2024-03-07T13:49:30;4.20;;;3.33;;
11052;SDS011;55230;42.602;23.470;2024-03-07T13:51:57;11.13;;;5.63;;
11052;SDS011;55230;42.602;23.470;2024-03-07T13:59:57;5.97;;;3.97;;
11052;SDS011;55230;42.602;23.470;2024-03-07T14:02:59;3.53;;;3.08;;
11052;SDS011;55230;42.602;23.470;2024-03-07T14:06:02;2.47;;;2.28;;
11052;SDS011;55230;42.602;23.470;2024-03-07T14:14:21;3.08;;;2.88;;
11052;SDS011;55230;42.602;23.470;2024-03-07T14:22:54;2.90;;;2.60;;
11052;SDS011;55230;42.602;23.470;2024-03-07T14:28:40;3.15;;;2.85;;
11052;SDS011;55230;42.602;23.470;2024-03-07T14:31:29;2.95;;;2.20;;
11052;SDS011;55230;42.602;23.470;2024-03-07T14:34:06;2.67;;;2.40;;
11052;SDS011;55230;42.602;23.470;2024-03-07T14:36:50;2.80;;;2.60;;
11052;SDS011;55230;42.602;23.470;2024-03-07T14:39:18;2.88;;;2.67;;
11052;SDS011;55230;42.602;23.470;2024-03-07T14:41:58;2.92;;;2.72;;
11052;SDS011;55230;42.602;23.470;2024-03-07T14:44:26;3.67;;;3.38;;
11052;SDS011;55230;42.602;23.470;2024-03-07T14:46:54;1.65;;;1.55;;
11052;SDS011;55230;42.602;23.470;2024-03-07T14:49:23;3.08;;;2.80;;
11052;SDS011;55230;42.602;23.470;2024-03-07T14:51:50;4.60;;;3.50;;
11052;SDS011;55230;42.602;23.470;2024-03-07T14:54:18;3.45;;;3.17;;
11052;SDS011;55230;42.602;23.470;2024-03-07T14:56:45;8.30;;;6.35;;
11052;SDS011;55230;42.602;23.470;2024-03-07T14:59:11;14.98;;;9.93;;
11052;SDS011;55230;42.602;23.470;2024-03-07T15:01:37;12.77;;;8.48;;